TimePDT,TemperatureF,Dew PointF,Humidity,Sea Level PressureIn,VisibilityMPH,Wind Direction,Wind SpeedMPH,Gust SpeedMPH,PrecipitationIn,Events,Conditions,WindDirDegrees,DateUTC
12:53 AM,73.9,30.9,21,29.82,10.0,North,5.8,-,N/A,,Clear,360,2012-10-03 07:53:00
1:53 AM,72.0,35.1,26,29.83,10.0,NW,3.5,-,N/A,,Clear,320,2012-10-03 08:53:00
2:53 AM,71.1,34.0,26,29.83,10.0,NNW,6.9,-,N/A,,Clear,330,2012-10-03 09:53:00
3:53 AM,70.0,36.0,29,29.83,10.0,Calm,Calm,-,N/A,,Clear,0,2012-10-03 10:53:00
4:53 AM,68.0,34.0,28,29.84,10.0,NW,3.5,-,N/A,,Clear,320,2012-10-03 11:53:00
5:53 AM,68.0,34.0,28,29.85,10.0,NW,6.9,-,N/A,,Clear,320,2012-10-03 12:53:00
6:53 AM,68.0,32.0,26,29.87,10.0,WNW,5.8,-,N/A,,Clear,300,2012-10-03 13:53:00
7:53 AM,73.0,28.9,20,29.89,10.0,North,6.9,-,N/A,,Clear,350,2012-10-03 14:53:00
8:53 AM,79.0,30.9,17,29.91,10.0,North,3.5,-,N/A,,Clear,360,2012-10-03 15:53:00
9:53 AM,82.9,27.0,13,29.92,10.0,ENE,3.5,-,N/A,,Clear,70,2012-10-03 16:53:00
10:53 AM,88.0,27.0,11,29.91,10.0,Calm,Calm,-,N/A,,Clear,0,2012-10-03 17:53:00
11:53 AM,89.1,28.0,11,29.90,10.0,Calm,Calm,-,N/A,,Clear,0,2012-10-03 18:53:00
12:53 PM,91.0,28.0,10,29.87,10.0,Calm,Calm,-,N/A,,Clear,0,2012-10-03 19:53:00
1:53 PM,93.0,30.0,11,29.84,10.0,SSE,4.6,-,N/A,,Clear,150,2012-10-03 20:53:00
2:53 PM,97.0,27.0,8,29.82,10.0,WSW,10.4,19.6,N/A,,Clear,240,2012-10-03 21:53:00
3:53 PM,97.0,26.1,8,29.81,10.0,SW,13.8,23.0,N/A,,Clear,220,2012-10-03 22:53:00
4:53 PM,96.1,24.1,8,29.82,10.0,SW,17.3,-,N/A,,Clear,220,2012-10-03 23:53:00
5:53 PM,93.9,26.1,9,29.81,10.0,SW,16.1,24.2,N/A,,Clear,230,2012-10-04 00:53:00
6:53 PM,91.0,27.0,10,29.83,10.0,WSW,11.5,-,N/A,,Clear,240,2012-10-04 01:53:00
7:53 PM,88.0,28.0,12,29.83,10.0,SSW,9.2,-,N/A,,Clear,210,2012-10-04 02:53:00
8:53 PM,86.0,28.0,12,29.84,10.0,South,8.1,-,N/A,,Clear,190,2012-10-04 03:53:00
9:53 PM,86.0,25.0,11,29.85,10.0,SW,8.1,-,N/A,,Clear,230,2012-10-04 04:53:00
10:53 PM,80.1,30.0,16,29.87,10.0,WNW,8.1,-,N/A,,Clear,300,2012-10-04 05:53:00
11:53 PM,82.0,30.0,15,29.87,10.0,SSW,11.5,-,N/A,,Clear,210,2012-10-04 06:53:00